sensor_id;sensor_type;location;lat;lon;timestamp;P1;durP1;ratioP1;P2;durP2;ratioP2
61150;SDS011;47029;50.994;2.876;2022-07-06T00:01:51;12.52;;;6.93;;
61150;SDS011;47029;50.994;2.876;2022-07-06T00:04:18;12.48;;;6.10;;
61150;SDS011;47029;50.994;2.876;2022-07-06T00:06:44;12.35;;;6.70;;
61150;SDS011;47029;50.994;2.876;2022-07-06T00:09:11;13.27;;;6.47;;
61150;SDS011;47029;50.994;2.876;2022-07-06T00:11:37;11.88;;;6.20;;
61150;SDS011;47029;50.994;2.876;2022-07-06T00:14:04;12.95;;;6.32;;
61150;SDS011;47029;50.994;2.876;2022-07-06T00:16:31;12.68;;;6.07;;
61150;SDS011;47029;50.994;2.876;2022-07-06T00:18:57;11.00;;;6.32;;
61150;SDS011;47029;50.994;2.876;2022-07-06T00:21:23;12.27;;;6.15;;
61150;SDS011;47029;50.994;2.876;2022-07-06T00:23:50;11.73;;;5.70;;
61150;SDS011;47029;50.994;2.876;2022-07-06T00:26:17;15.02;;;5.95;;
61150;SDS011;47029;50.994;2.876;2022-07-06T00:28:44;10.77;;;5.80;;
61150;SDS011;47029;50.994;2.876;2022-07-06T00:31:11;14.82;;;5.80;;
61150;SDS011;47029;50.994;2.876;2022-07-06T00:33:37;14.38;;;6.25;;
61150;SDS011;47029;50.994;2.876;2022-07-06T00:36:03;12.32;;;5.65;;
61150;SDS011;47029;50.994;2.876;2022-07-06T00:38:30;11.50;;;5.85;;
61150;SDS011;47029;50.994;2.876;2022-07-06T00:40:56;12.15;;;5.68;;
61150;SDS011;47029;50.994;2.876;2022-07-06T00:43:23;10.75;;;5.78;;
61150;SDS011;47029;50.994;2.876;2022-07-06T00:45:49;11.35;;;5.85;;
61150;SDS011;47029;50.994;2.876;2022-07-06T00:48:15;12.43;;;5.97;;
61150;SDS011;47029;50.994;2.876;2022-07-06T00:50:42;10.75;;;5.50;;
61150;SDS011;47029;50.994;2.876;2022-07-06T00:53:08;11.65;;;6.10;;
61150;SDS011;47029;50.994;2.876;2022-07-06T00:55:37;12.10;;;6.10;;
61150;SDS011;47029;50.994;2.876;2022-07-06T00:58:07;10.80;;;5.95;;
61150;SDS011;47029;50.994;2.876;2022-07-06T01:00:34;12.95;;;6.53;;
61150;SDS011;47029;50.994;2.876;2022-07-06T01:03:01;14.57;;;6.15;;
61150;SDS011;47029;50.994;2.876;2022-07-06T01:05:27;13.02;;;6.60;;
61150;SDS011;47029;50.994;2.876;2022-07-06T01:07:54;12.30;;;6.50;;
61150;SDS011;47029;50.994;2.876;2022-07-06T01:10:21;11.60;;;5.78;;
61150;SDS011;47029;50.994;2.876;2022-07-06T01:12:48;12.35;;;6.35;;
61150;SDS011;47029;50.994;2.876;2022-07-06T01:15:15;10.98;;;5.97;;
61150;SDS011;47029;50.994;2.876;2022-07-06T01:17:49;13.43;;;6.13;;
61150;SDS011;47029;50.994;2.876;2022-07-06T01:20:16;11.60;;;5.95;;
61150;SDS011;47029;50.994;2.876;2022-07-06T01:22:43;13.27;;;6.35;;
61150;SDS011;47029;50.994;2.876;2022-07-06T01:25:10;11.40;;;6.43;;
61150;SDS011;47029;50.994;2.876;2022-07-06T01:27:38;13.25;;;6.45;;
61150;SDS011;47029;50.994;2.876;2022-07-06T01:30:06;13.82;;;6.43;;
61150;SDS011;47029;50.994;2.876;2022-07-06T01:32:34;12.77;;;5.95;;
61150;SDS011;47029;50.994;2.876;2022-07-06T01:35:00;12.45;;;6.35;;
61150;SDS011;47029;50.994;2.876;2022-07-06T01:37:27;11.68;;;6.50;;
61150;SDS011;47029;50.994;2.876;2022-07-06T01:39:53;12.07;;;6.53;;
61150;SDS011;47029;50.994;2.876;2022-07-06T01:42:22;12.95;;;6.57;;
61150;SDS011;47029;50.994;2.876;2022-07-06T01:44:48;12.82;;;6.72;;
61150;SDS011;47029;50.994;2.876;2022-07-06T01:47:15;13.75;;;6.78;;
61150;SDS011;47029;50.994;2.876;2022-07-06T01:49:41;11.90;;;6.50;;
61150;SDS011;47029;50.994;2.876;2022-07-06T01:52:08;12.30;;;6.53;;
61150;SDS011;47029;50.994;2.876;2022-07-06T01:54:34;15.25;;;7.22;;
61150;SDS011;47029;50.994;2.876;2022-07-06T01:57:01;17.25;;;7.37;;
61150;SDS011;47029;50.994;2.876;2022-07-06T01:59:27;15.02;;;6.93;;
61150;SDS011;47029;50.994;2.876;2022-07-06T02:01:54;14.38;;;6.78;;
61150;SDS011;47029;50.994;2.876;2022-07-06T02:04:20;13.00;;;6.72;;
61150;SDS011;47029;50.994;2.876;2022-07-06T02:06:47;12.43;;;7.00;;
61150;SDS011;47029;50.994;2.876;2022-07-06T02:09:13;14.00;;;6.65;;
61150;SDS011;47029;50.994;2.876;2022-07-06T02:11:41;18.10;;;6.50;;
61150;SDS011;47029;50.994;2.876;2022-07-06T02:14:07;14.65;;;6.57;;
61150;SDS011;47029;50.994;2.876;2022-07-06T02:16:34;11.50;;;6.25;;
61150;SDS011;47029;50.994;2.876;2022-07-06T02:19:00;11.43;;;5.80;;
61150;SDS011;47029;50.994;2.876;2022-07-06T02:21:27;12.48;;;6.07;;
61150;SDS011;47029;50.994;2.876;2022-07-06T02:23:53;12.85;;;5.85;;
61150;SDS011;47029;50.994;2.876;2022-07-06T02:26:20;13.40;;;6.15;;
61150;SDS011;47029;50.994;2.876;2022-07-06T02:28:46;12.07;;;6.00;;
61150;SDS011;47029;50.994;2.876;2022-07-06T02:31:13;14.23;;;7.22;;
61150;SDS011;47029;50.994;2.876;2022-07-06T02:33:40;11.35;;;6.57;;
61150;SDS011;47029;50.994;2.876;2022-07-06T02:36:06;12.77;;;6.95;;
61150;SDS011;47029;50.994;2.876;2022-07-06T02:38:32;12.60;;;6.55;;
61150;SDS011;47029;50.994;2.876;2022-07-06T02:40:59;14.40;;;6.70;;
61150;SDS011;47029;50.994;2.876;2022-07-06T02:43:25;15.77;;;7.37;;
61150;SDS011;47029;50.994;2.876;2022-07-06T02:45:51;13.73;;;7.30;;
61150;SDS011;47029;50.994;2.876;2022-07-06T02:48:18;13.40;;;7.03;;
61150;SDS011;47029;50.994;2.876;2022-07-06T02:50:46;13.48;;;6.97;;
61150;SDS011;47029;50.994;2.876;2022-07-06T02:53:13;13.45;;;6.72;;
61150;SDS011;47029;50.994;2.876;2022-07-06T02:55:38;14.20;;;7.10;;
61150;SDS011;47029;50.994;2.876;2022-07-06T02:58:05;12.57;;;7.05;;
61150;SDS011;47029;50.994;2.876;2022-07-06T03:00:31;12.00;;;6.60;;
61150;SDS011;47029;50.994;2.876;2022-07-06T03:02:57;17.27;;;6.85;;
61150;SDS011;47029;50.994;2.876;2022-07-06T03:05:24;14.07;;;6.85;;
61150;SDS011;47029;50.994;2.876;2022-07-06T03:07:50;14.35;;;6.40;;
61150;SDS011;47029;50.994;2.876;2022-07-06T03:10:17;13.07;;;7.03;;
61150;SDS011;47029;50.994;2.876;2022-07-06T03:12:43;15.43;;;7.47;;
61150;SDS011;47029;50.994;2.876;2022-07-06T03:15:10;11.70;;;6.93;;
61150;SDS011;47029;50.994;2.876;2022-07-06T03:17:37;15.68;;;7.70;;
61150;SDS011;47029;50.994;2.876;2022-07-06T03:20:04;14.75;;;7.87;;
61150;SDS011;47029;50.994;2.876;2022-07-06T03:22:30;17.67;;;8.20;;
61150;SDS011;47029;50.994;2.876;2022-07-06T03:24:56;17.60;;;9.20;;
61150;SDS011;47029;50.994;2.876;2022-07-06T03:27:22;14.95;;;8.65;;
61150;SDS011;47029;50.994;2.876;2022-07-06T03:29:49;15.88;;;8.32;;
61150;SDS011;47029;50.994;2.876;2022-07-06T03:32:15;19.62;;;8.32;;
61150;SDS011;47029;50.994;2.876;2022-07-06T03:34:42;17.80;;;9.25;;
61150;SDS011;47029;50.994;2.876;2022-07-06T03:37:08;16.20;;;8.60;;
61150;SDS011;47029;50.994;2.876;2022-07-06T03:39:35;16.52;;;9.65;;
61150;SDS011;47029;50.994;2.876;2022-07-06T03:42:01;17.77;;;9.73;;
61150;SDS011;47029;50.994;2.876;2022-07-06T03:44:27;16.87;;;8.90;;
61150;SDS011;47029;50.994;2.876;2022-07-06T03:46:54;17.52;;;9.02;;
61150;SDS011;47029;50.994;2.876;2022-07-06T03:49:21;18.60;;;9.52;;
61150;SDS011;47029;50.994;2.876;2022-07-06T03:51:47;19.65;;;9.77;;
61150;SDS011;47029;50.994;2.876;2022-07-06T03:54:13;18.77;;;11.00;;
61150;SDS011;47029;50.994;2.876;2022-07-06T03:56:40;17.55;;;10.07;;
61150;SDS011;47029;50.994;2.876;2022-07-06T03:59:06;17.52;;;10.30;;
61150;SDS011;47029;50.994;2.876;2022-07-06T04:01:32;21.08;;;11.12;;
61150;SDS011;47029;50.994;2.876;2022-07-06T04:03:58;20.10;;;10.98;;
61150;SDS011;47029;50.994;2.876;2022-07-06T04:06:25;18.92;;;10.32;;
61150;SDS011;47029;50.994;2.876;2022-07-06T04:08:51;19.00;;;10.18;;
61150;SDS011;47029;50.994;2.876;2022-07-06T04:11:18;20.42;;;10.15;;
61150;SDS011;47029;50.994;2.876;2022-07-06T04:13:44;18.27;;;10.35;;
61150;SDS011;47029;50.994;2.876;2022-07-06T04:16:10;18.87;;;10.55;;
61150;SDS011;47029;50.994;2.876;2022-07-06T04:18:36;19.12;;;10.55;;
61150;SDS011;47029;50.994;2.876;2022-07-06T04:21:03;21.00;;;10.13;;
61150;SDS011;47029;50.994;2.876;2022-07-06T04:23:30;17.92;;;10.38;;
61150;SDS011;47029;50.994;2.876;2022-07-06T04:26:36;19.30;;;10.13;;
61150;SDS011;47029;50.994;2.876;2022-07-06T04:29:02;18.15;;;11.07;;
61150;SDS011;47029;50.994;2.876;2022-07-06T04:31:29;18.50;;;11.02;;
61150;SDS011;47029;50.994;2.876;2022-07-06T04:33:55;20.45;;;9.77;;
61150;SDS011;47029;50.994;2.876;2022-07-06T04:36:22;19.73;;;10.60;;
61150;SDS011;47029;50.994;2.876;2022-07-06T04:38:48;18.27;;;10.27;;
61150;SDS011;47029;50.994;2.876;2022-07-06T04:41:15;17.37;;;10.38;;
61150;SDS011;47029;50.994;2.876;2022-07-06T04:43:41;17.95;;;10.23;;
61150;SDS011;47029;50.994;2.876;2022-07-06T04:46:09;18.02;;;11.18;;
61150;SDS011;47029;50.994;2.876;2022-07-06T04:48:35;19.50;;;10.20;;
61150;SDS011;47029;50.994;2.876;2022-07-06T04:51:04;19.45;;;10.60;;
61150;SDS011;47029;50.994;2.876;2022-07-06T04:53:30;18.62;;;10.73;;
61150;SDS011;47029;50.994;2.876;2022-07-06T04:55:56;21.70;;;11.43;;
61150;SDS011;47029;50.994;2.876;2022-07-06T04:58:24;18.48;;;10.93;;
61150;SDS011;47029;50.994;2.876;2022-07-06T05:00:50;23.45;;;11.00;;
61150;SDS011;47029;50.994;2.876;2022-07-06T05:03:16;16.70;;;10.13;;
61150;SDS011;47029;50.994;2.876;2022-07-06T05:05:42;18.15;;;10.65;;
61150;SDS011;47029;50.994;2.876;2022-07-06T05:08:09;20.62;;;10.55;;
61150;SDS011;47029;50.994;2.876;2022-07-06T05:10:35;20.52;;;10.50;;
61150;SDS011;47029;50.994;2.876;2022-07-06T05:13:02;19.27;;;10.95;;
61150;SDS011;47029;50.994;2.876;2022-07-06T05:15:28;19.23;;;11.15;;
61150;SDS011;47029;50.994;2.876;2022-07-06T05:17:55;21.25;;;10.82;;
61150;SDS011;47029;50.994;2.876;2022-07-06T05:20:21;19.90;;;10.65;;
61150;SDS011;47029;50.994;2.876;2022-07-06T05:22:48;18.45;;;9.90;;
61150;SDS011;47029;50.994;2.876;2022-07-06T05:25:14;17.70;;;9.57;;
61150;SDS011;47029;50.994;2.876;2022-07-06T05:27:41;18.55;;;10.38;;
61150;SDS011;47029;50.994;2.876;2022-07-06T05:30:07;19.95;;;10.77;;
61150;SDS011;47029;50.994;2.876;2022-07-06T05:32:34;17.20;;;9.93;;
61150;SDS011;47029;50.994;2.876;2022-07-06T05:35:00;22.13;;;10.50;;
61150;SDS011;47029;50.994;2.876;2022-07-06T05:37:26;17.65;;;10.13;;
61150;SDS011;47029;50.994;2.876;2022-07-06T05:39:53;17.37;;;10.27;;
61150;SDS011;47029;50.994;2.876;2022-07-06T05:42:19;21.65;;;9.63;;
61150;SDS011;47029;50.994;2.876;2022-07-06T05:44:46;17.85;;;9.90;;
61150;SDS011;47029;50.994;2.876;2022-07-06T05:47:12;20.33;;;10.93;;
61150;SDS011;47029;50.994;2.876;2022-07-06T05:49:57;17.75;;;9.38;;
61150;SDS011;47029;50.994;2.876;2022-07-06T05:52:39;17.80;;;10.35;;
61150;SDS011;47029;50.994;2.876;2022-07-06T05:55:09;22.30;;;10.48;;
61150;SDS011;47029;50.994;2.876;2022-07-06T05:57:36;26.67;;;10.88;;
61150;SDS011;47029;50.994;2.876;2022-07-06T06:00:04;20.40;;;11.55;;
61150;SDS011;47029;50.994;2.876;2022-07-06T06:02:37;23.17;;;11.68;;
61150;SDS011;47029;50.994;2.876;2022-07-06T06:05:05;24.90;;;11.35;;
61150;SDS011;47029;50.994;2.876;2022-07-06T06:07:35;22.87;;;12.63;;
61150;SDS011;47029;50.994;2.876;2022-07-06T06:10:06;19.90;;;11.40;;
61150;SDS011;47029;50.994;2.876;2022-07-06T06:12:33;20.83;;;11.43;;
61150;SDS011;47029;50.994;2.876;2022-07-06T06:15:00;20.65;;;10.65;;
61150;SDS011;47029;50.994;2.876;2022-07-06T06:17:26;21.30;;;10.07;;
61150;SDS011;47029;50.994;2.876;2022-07-06T06:19:53;21.98;;;11.10;;
61150;SDS011;47029;50.994;2.876;2022-07-06T06:22:19;21.05;;;10.32;;
61150;SDS011;47029;50.994;2.876;2022-07-06T06:24:45;21.17;;;10.88;;
61150;SDS011;47029;50.994;2.876;2022-07-06T06:27:12;20.58;;;10.98;;
61150;SDS011;47029;50.994;2.876;2022-07-06T06:29:38;21.33;;;10.90;;
61150;SDS011;47029;50.994;2.876;2022-07-06T06:32:06;20.65;;;10.57;;
61150;SDS011;47029;50.994;2.876;2022-07-06T06:34:33;20.12;;;9.73;;
61150;SDS011;47029;50.994;2.876;2022-07-06T06:36:59;19.17;;;10.05;;
61150;SDS011;47029;50.994;2.876;2022-07-06T06:39:25;18.70;;;9.73;;
61150;SDS011;47029;50.994;2.876;2022-07-06T06:41:52;19.12;;;9.63;;
61150;SDS011;47029;50.994;2.876;2022-07-06T06:44:18;19.50;;;10.10;;
61150;SDS011;47029;50.994;2.876;2022-07-06T06:46:48;18.85;;;9.30;;
61150;SDS011;47029;50.994;2.876;2022-07-06T06:49:15;18.02;;;9.57;;
61150;SDS011;47029;50.994;2.876;2022-07-06T06:51:42;17.60;;;9.65;;
61150;SDS011;47029;50.994;2.876;2022-07-06T06:54:09;17.20;;;9.10;;
61150;SDS011;47029;50.994;2.876;2022-07-06T06:56:35;21.17;;;9.35;;
61150;SDS011;47029;50.994;2.876;2022-07-06T06:59:02;18.85;;;9.15;;
61150;SDS011;47029;50.994;2.876;2022-07-06T07:01:28;17.42;;;9.52;;
61150;SDS011;47029;50.994;2.876;2022-07-06T07:03:54;19.30;;;9.13;;
61150;SDS011;47029;50.994;2.876;2022-07-06T07:06:21;18.50;;;9.05;;
61150;SDS011;47029;50.994;2.876;2022-07-06T07:08:47;16.05;;;8.32;;
61150;SDS011;47029;50.994;2.876;2022-07-06T07:11:14;18.37;;;9.15;;
61150;SDS011;47029;50.994;2.876;2022-07-06T07:13:40;16.75;;;9.35;;
61150;SDS011;47029;50.994;2.876;2022-07-06T07:16:06;18.75;;;8.23;;
61150;SDS011;47029;50.994;2.876;2022-07-06T07:18:33;18.30;;;9.18;;
61150;SDS011;47029;50.994;2.876;2022-07-06T07:21:00;18.02;;;9.02;;
61150;SDS011;47029;50.994;2.876;2022-07-06T07:23:26;19.73;;;9.27;;
61150;SDS011;47029;50.994;2.876;2022-07-06T07:25:53;15.60;;;9.02;;
61150;SDS011;47029;50.994;2.876;2022-07-06T07:28:19;16.25;;;8.88;;
61150;SDS011;47029;50.994;2.876;2022-07-06T07:30:45;18.70;;;8.85;;
61150;SDS011;47029;50.994;2.876;2022-07-06T07:33:12;16.95;;;9.20;;
61150;SDS011;47029;50.994;2.876;2022-07-06T07:35:39;19.23;;;9.18;;
61150;SDS011;47029;50.994;2.876;2022-07-06T07:38:05;20.20;;;9.18;;
61150;SDS011;47029;50.994;2.876;2022-07-06T07:40:31;17.58;;;8.88;;
61150;SDS011;47029;50.994;2.876;2022-07-06T07:42:59;20.15;;;8.95;;
61150;SDS011;47029;50.994;2.876;2022-07-06T07:45:25;16.90;;;8.73;;
61150;SDS011;47029;50.994;2.876;2022-07-06T07:47:52;17.50;;;9.18;;
61150;SDS011;47029;50.994;2.876;2022-07-06T07:50:19;18.08;;;8.75;;
61150;SDS011;47029;50.994;2.876;2022-07-06T07:52:45;15.98;;;9.07;;
61150;SDS011;47029;50.994;2.876;2022-07-06T07:55:12;18.08;;;9.25;;
61150;SDS011;47029;50.994;2.876;2022-07-06T07:57:38;15.98;;;9.07;;
61150;SDS011;47029;50.994;2.876;2022-07-06T08:00:04;16.45;;;9.05;;
61150;SDS011;47029;50.994;2.876;2022-07-06T08:02:31;20.35;;;9.35;;
61150;SDS011;47029;50.994;2.876;2022-07-06T08:04:57;17.73;;;9.30;;
61150;SDS011;47029;50.994;2.876;2022-07-06T08:07:24;19.85;;;9.95;;
61150;SDS011;47029;50.994;2.876;2022-07-06T08:09:50;17.73;;;8.88;;
61150;SDS011;47029;50.994;2.876;2022-07-06T08:12:16;18.58;;;8.70;;
61150;SDS011;47029;50.994;2.876;2022-07-06T08:14:43;14.93;;;8.63;;
61150;SDS011;47029;50.994;2.876;2022-07-06T08:17:09;18.73;;;9.20;;
61150;SDS011;47029;50.994;2.876;2022-07-06T08:19:36;17.62;;;9.13;;
61150;SDS011;47029;50.994;2.876;2022-07-06T08:22:02;20.58;;;9.25;;
61150;SDS011;47029;50.994;2.876;2022-07-06T08:24:36;20.67;;;9.40;;
61150;SDS011;47029;50.994;2.876;2022-07-06T08:27:02;17.73;;;9.65;;
61150;SDS011;47029;50.994;2.876;2022-07-06T08:29:29;17.92;;;9.75;;
61150;SDS011;47029;50.994;2.876;2022-07-06T08:31:57;21.37;;;9.75;;
61150;SDS011;47029;50.994;2.876;2022-07-06T08:34:23;18.42;;;9.45;;
61150;SDS011;47029;50.994;2.876;2022-07-06T08:36:49;18.50;;;9.85;;
61150;SDS011;47029;50.994;2.876;2022-07-06T08:39:16;18.65;;;9.48;;
61150;SDS011;47029;50.994;2.876;2022-07-06T08:41:42;16.85;;;9.77;;
61150;SDS011;47029;50.994;2.876;2022-07-06T08:44:13;18.92;;;10.43;;
61150;SDS011;47029;50.994;2.876;2022-07-06T08:46:40;20.67;;;9.60;;
61150;SDS011;47029;50.994;2.876;2022-07-06T08:49:07;20.25;;;9.65;;
61150;SDS011;47029;50.994;2.876;2022-07-06T08:51:38;14.95;;;8.75;;
61150;SDS011;47029;50.994;2.876;2022-07-06T08:54:05;14.25;;;7.68;;
61150;SDS011;47029;50.994;2.876;2022-07-06T08:56:33;16.75;;;8.23;;
61150;SDS011;47029;50.994;2.876;2022-07-06T08:59:00;18.15;;;8.52;;
61150;SDS011;47029;50.994;2.876;2022-07-06T09:01:26;17.73;;;8.23;;
61150;SDS011;47029;50.994;2.876;2022-07-06T09:03:54;15.52;;;8.15;;
61150;SDS011;47029;50.994;2.876;2022-07-06T09:06:24;15.38;;;8.80;;
61150;SDS011;47029;50.994;2.876;2022-07-06T09:08:56;19.58;;;8.63;;
61150;SDS011;47029;50.994;2.876;2022-07-06T09:11:23;17.42;;;8.55;;
61150;SDS011;47029;50.994;2.876;2022-07-06T09:13:53;17.80;;;8.30;;
61150;SDS011;47029;50.994;2.876;2022-07-06T09:16:24;17.08;;;8.95;;
61150;SDS011;47029;50.994;2.876;2022-07-06T09:18:56;17.58;;;8.40;;
61150;SDS011;47029;50.994;2.876;2022-07-06T09:21:23;16.52;;;8.52;;
61150;SDS011;47029;50.994;2.876;2022-07-06T09:23:55;17.90;;;8.88;;
61150;SDS011;47029;50.994;2.876;2022-07-06T09:26:22;19.65;;;9.23;;
61150;SDS011;47029;50.994;2.876;2022-07-06T09:28:49;16.52;;;8.73;;
61150;SDS011;47029;50.994;2.876;2022-07-06T09:31:16;14.85;;;8.02;;
61150;SDS011;47029;50.994;2.876;2022-07-06T09:36:39;17.37;;;7.90;;
61150;SDS011;47029;50.994;2.876;2022-07-06T09:39:25;15.60;;;8.48;;
61150;SDS011;47029;50.994;2.876;2022-07-06T09:41:54;16.90;;;8.32;;
61150;SDS011;47029;50.994;2.876;2022-07-06T09:46:49;15.23;;;7.07;;
61150;SDS011;47029;50.994;2.876;2022-07-06T09:49:16;12.85;;;6.43;;
61150;SDS011;47029;50.994;2.876;2022-07-06T09:51:44;14.73;;;6.62;;
61150;SDS011;47029;50.994;2.876;2022-07-06T09:54:11;12.90;;;7.07;;
61150;SDS011;47029;50.994;2.876;2022-07-06T09:56:38;15.07;;;7.40;;
61150;SDS011;47029;50.994;2.876;2022-07-06T09:59:13;17.02;;;7.85;;
61150;SDS011;47029;50.994;2.876;2022-07-06T10:01:40;14.68;;;8.70;;
61150;SDS011;47029;50.994;2.876;2022-07-06T10:04:10;14.55;;;8.57;;
61150;SDS011;47029;50.994;2.876;2022-07-06T10:06:38;17.85;;;8.48;;
61150;SDS011;47029;50.994;2.876;2022-07-06T10:09:08;17.25;;;8.60;;
61150;SDS011;47029;50.994;2.876;2022-07-06T10:11:38;16.12;;;7.45;;
61150;SDS011;47029;50.994;2.876;2022-07-06T10:14:08;13.43;;;6.40;;
61150;SDS011;47029;50.994;2.876;2022-07-06T10:16:36;13.88;;;5.05;;
61150;SDS011;47029;50.994;2.876;2022-07-06T10:19:07;11.60;;;5.53;;
61150;SDS011;47029;50.994;2.876;2022-07-06T10:21:37;14.38;;;7.00;;
61150;SDS011;47029;50.994;2.876;2022-07-06T10:24:05;13.98;;;6.40;;
61150;SDS011;47029;50.994;2.876;2022-07-06T10:26:32;14.50;;;5.78;;
61150;SDS011;47029;50.994;2.876;2022-07-06T10:29:00;11.18;;;5.00;;
61150;SDS011;47029;50.994;2.876;2022-07-06T10:31:30;11.00;;;5.57;;
61150;SDS011;47029;50.994;2.876;2022-07-06T10:34:02;10.77;;;4.55;;
61150;SDS011;47029;50.994;2.876;2022-07-06T10:36:31;10.70;;;4.95;;
61150;SDS011;47029;50.994;2.876;2022-07-06T10:39:03;11.57;;;5.20;;
61150;SDS011;47029;50.994;2.876;2022-07-06T10:41:50;12.25;;;4.90;;
61150;SDS011;47029;50.994;2.876;2022-07-06T10:44:18;11.00;;;5.50;;
61150;SDS011;47029;50.994;2.876;2022-07-06T10:46:53;11.48;;;5.32;;
61150;SDS011;47029;50.994;2.876;2022-07-06T10:49:21;11.65;;;5.60;;
61150;SDS011;47029;50.994;2.876;2022-07-06T10:51:49;13.77;;;5.55;;
61150;SDS011;47029;50.994;2.876;2022-07-06T10:54:16;14.73;;;5.90;;
61150;SDS011;47029;50.994;2.876;2022-07-06T10:56:45;11.40;;;5.40;;
61150;SDS011;47029;50.994;2.876;2022-07-06T10:59:16;12.10;;;6.12;;
61150;SDS011;47029;50.994;2.876;2022-07-06T11:04:47;10.38;;;4.40;;
61150;SDS011;47029;50.994;2.876;2022-07-06T11:07:14;9.98;;;4.22;;
61150;SDS011;47029;50.994;2.876;2022-07-06T11:10:03;12.23;;;4.90;;
61150;SDS011;47029;50.994;2.876;2022-07-06T11:12:28;12.88;;;5.10;;
61150;SDS011;47029;50.994;2.876;2022-07-06T11:14:55;13.82;;;5.15;;
61150;SDS011;47029;50.994;2.876;2022-07-06T11:17:22;12.40;;;5.43;;
61150;SDS011;47029;50.994;2.876;2022-07-06T11:19:58;14.55;;;5.22;;
61150;SDS011;47029;50.994;2.876;2022-07-06T11:22:38;12.50;;;5.30;;
61150;SDS011;47029;50.994;2.876;2022-07-06T11:25:05;12.75;;;4.75;;
61150;SDS011;47029;50.994;2.876;2022-07-06T11:27:31;10.15;;;4.93;;
61150;SDS011;47029;50.994;2.876;2022-07-06T11:30:02;11.30;;;4.15;;
61150;SDS011;47029;50.994;2.876;2022-07-06T11:32:32;10.80;;;4.53;;
61150;SDS011;47029;50.994;2.876;2022-07-06T11:35:00;11.40;;;4.60;;
61150;SDS011;47029;50.994;2.876;2022-07-06T11:37:26;10.82;;;4.32;;
61150;SDS011;47029;50.994;2.876;2022-07-06T11:39:53;14.57;;;4.43;;
61150;SDS011;47029;50.994;2.876;2022-07-06T11:42:20;11.00;;;4.45;;
61150;SDS011;47029;50.994;2.876;2022-07-06T11:44:46;9.82;;;4.40;;
61150;SDS011;47029;50.994;2.876;2022-07-06T11:47:15;12.05;;;4.97;;
61150;SDS011;47029;50.994;2.876;2022-07-06T11:49:42;13.02;;;5.32;;
61150;SDS011;47029;50.994;2.876;2022-07-06T11:52:11;11.10;;;4.90;;
61150;SDS011;47029;50.994;2.876;2022-07-06T11:54:41;11.40;;;5.22;;
61150;SDS011;47029;50.994;2.876;2022-07-06T11:57:09;12.85;;;5.10;;
61150;SDS011;47029;50.994;2.876;2022-07-06T11:59:36;11.88;;;5.10;;
61150;SDS011;47029;50.994;2.876;2022-07-06T12:02:04;12.40;;;5.18;;
61150;SDS011;47029;50.994;2.876;2022-07-06T12:04:33;12.55;;;5.25;;
61150;SDS011;47029;50.994;2.876;2022-07-06T12:07:01;11.63;;;5.40;;
61150;SDS011;47029;50.994;2.876;2022-07-06T12:09:31;12.60;;;5.70;;
61150;SDS011;47029;50.994;2.876;2022-07-06T12:11:59;12.20;;;5.40;;
61150;SDS011;47029;50.994;2.876;2022-07-06T12:14:29;12.32;;;5.20;;
61150;SDS011;47029;50.994;2.876;2022-07-06T12:16:56;13.10;;;5.10;;
61150;SDS011;47029;50.994;2.876;2022-07-06T12:19:27;13.25;;;5.40;;
61150;SDS011;47029;50.994;2.876;2022-07-06T12:21:54;10.57;;;5.10;;
61150;SDS011;47029;50.994;2.876;2022-07-06T12:24:22;9.73;;;4.50;;
61150;SDS011;47029;50.994;2.876;2022-07-06T12:26:50;10.70;;;4.50;;
61150;SDS011;47029;50.994;2.876;2022-07-06T12:29:17;11.57;;;4.60;;
61150;SDS011;47029;50.994;2.876;2022-07-06T12:31:55;10.02;;;4.28;;
61150;SDS011;47029;50.994;2.876;2022-07-06T12:34:22;9.07;;;4.28;;
61150;SDS011;47029;50.994;2.876;2022-07-06T12:39:20;9.70;;;4.20;;
61150;SDS011;47029;50.994;2.876;2022-07-06T12:44:17;10.57;;;4.20;;
61150;SDS011;47029;50.994;2.876;2022-07-06T12:46:48;11.43;;;3.62;;
61150;SDS011;47029;50.994;2.876;2022-07-06T12:49:28;9.55;;;3.80;;
61150;SDS011;47029;50.994;2.876;2022-07-06T12:51:59;8.82;;;3.30;;
61150;SDS011;47029;50.994;2.876;2022-07-06T12:54:33;8.63;;;3.28;;
61150;SDS011;47029;50.994;2.876;2022-07-06T12:57:21;8.68;;;3.20;;
61150;SDS011;47029;50.994;2.876;2022-07-06T13:02:20;8.30;;;2.85;;
61150;SDS011;47029;50.994;2.876;2022-07-06T13:05:00;7.50;;;2.75;;
61150;SDS011;47029;50.994;2.876;2022-07-06T13:07:29;8.95;;;2.72;;
61150;SDS011;47029;50.994;2.876;2022-07-06T13:09:57;9.93;;;2.90;;
61150;SDS011;47029;50.994;2.876;2022-07-06T13:12:23;8.80;;;2.83;;
61150;SDS011;47029;50.994;2.876;2022-07-06T13:14:50;7.43;;;2.70;;
61150;SDS011;47029;50.994;2.876;2022-07-06T13:17:17;8.10;;;2.70;;
61150;SDS011;47029;50.994;2.876;2022-07-06T13:19:43;8.07;;;2.80;;
61150;SDS011;47029;50.994;2.876;2022-07-06T13:22:10;8.93;;;3.00;;
61150;SDS011;47029;50.994;2.876;2022-07-06T13:24:37;6.95;;;2.47;;
61150;SDS011;47029;50.994;2.876;2022-07-06T13:27:03;8.02;;;2.60;;
61150;SDS011;47029;50.994;2.876;2022-07-06T13:29:30;8.55;;;2.60;;
61150;SDS011;47029;50.994;2.876;2022-07-06T13:31:57;10.02;;;2.78;;
61150;SDS011;47029;50.994;2.876;2022-07-06T13:34:23;7.28;;;2.53;;
61150;SDS011;47029;50.994;2.876;2022-07-06T13:36:50;8.98;;;2.60;;
61150;SDS011;47029;50.994;2.876;2022-07-06T13:39:17;7.72;;;2.67;;
61150;SDS011;47029;50.994;2.876;2022-07-06T13:41:43;8.63;;;2.55;;
61150;SDS011;47029;50.994;2.876;2022-07-06T13:44:10;8.00;;;2.50;;
61150;SDS011;47029;50.994;2.876;2022-07-06T13:46:37;5.60;;;2.37;;
61150;SDS011;47029;50.994;2.876;2022-07-06T13:49:04;7.07;;;2.60;;
61150;SDS011;47029;50.994;2.876;2022-07-06T13:51:30;6.95;;;2.22;;
61150;SDS011;47029;50.994;2.876;2022-07-06T13:53:57;6.37;;;2.33;;
61150;SDS011;47029;50.994;2.876;2022-07-06T13:56:24;7.12;;;2.53;;
61150;SDS011;47029;50.994;2.876;2022-07-06T13:58:51;7.80;;;2.15;;
61150;SDS011;47029;50.994;2.876;2022-07-06T14:01:18;5.50;;;1.75;;
61150;SDS011;47029;50.994;2.876;2022-07-06T14:03:45;2.58;;;1.33;;
61150;SDS011;47029;50.994;2.876;2022-07-06T14:06:13;4.45;;;1.25;;
61150;SDS011;47029;50.994;2.876;2022-07-06T14:08:40;4.25;;;1.40;;
61150;SDS011;47029;50.994;2.876;2022-07-06T14:11:07;1.98;;;1.15;;
61150;SDS011;47029;50.994;2.876;2022-07-06T14:13:34;3.78;;;1.23;;
61150;SDS011;47029;50.994;2.876;2022-07-06T14:16:00;3.58;;;1.80;;
61150;SDS011;47029;50.994;2.876;2022-07-06T14:18:27;3.95;;;1.80;;
61150;SDS011;47029;50.994;2.876;2022-07-06T14:20:53;4.50;;;1.62;;
61150;SDS011;47029;50.994;2.876;2022-07-06T14:23:20;3.92;;;1.77;;
61150;SDS011;47029;50.994;2.876;2022-07-06T14:25:46;4.47;;;1.90;;
61150;SDS011;47029;50.994;2.876;2022-07-06T14:28:13;3.87;;;1.58;;
61150;SDS011;47029;50.994;2.876;2022-07-06T14:30:41;6.00;;;2.03;;
61150;SDS011;47029;50.994;2.876;2022-07-06T14:33:09;5.68;;;1.83;;
61150;SDS011;47029;50.994;2.876;2022-07-06T14:35:38;3.95;;;1.70;;
61150;SDS011;47029;50.994;2.876;2022-07-06T14:38:05;5.30;;;1.92;;
61150;SDS011;47029;50.994;2.876;2022-07-06T14:40:33;7.28;;;2.15;;
61150;SDS011;47029;50.994;2.876;2022-07-06T14:42:59;3.83;;;1.85;;
61150;SDS011;47029;50.994;2.876;2022-07-06T14:45:26;3.08;;;1.85;;
61150;SDS011;47029;50.994;2.876;2022-07-06T14:47:52;3.03;;;1.65;;
61150;SDS011;47029;50.994;2.876;2022-07-06T14:50:19;3.58;;;1.73;;
61150;SDS011;47029;50.994;2.876;2022-07-06T14:52:48;4.93;;;2.15;;